Time;durP1;ratioP1;P1;durP2;ratioP2;P2;SDS_P1;SDS_P2;PMS_P1;PMS_P2;Temp;Humidity;BMP_temperature;BMP_pressure;BME280_temperature;BME280_humidity;BME280_pressure;Samples;Min_cycle;Max_cycle;Signal;HPM_P1;HPM_P2
2023/03/26 00:01:37;;;;;;;17.90;6.53;;;25.30;99.90;;;;;;5064147;28;20025;-74
2023/03/26 00:04:05;;;;;;;8.32;3.78;;;25.20;99.90;;;;;;5075938;28;20024;-74
2023/03/26 00:06:37;;;;;;;12.52;5.05;;;25.20;99.90;;;;;;5077431;28;20016;-77
2023/03/26 00:09:07;;;;;;;8.55;4.13;;;25.20;99.90;;;;;;5078598;28;20020;-76
2023/03/26 00:11:34;;;;;;;7.15;3.13;;;25.20;99.90;;;;;;5085904;28;20041;-75
2023/03/26 00:14:01;;;;;;;9.85;4.00;;;25.20;99.90;;;;;;5086120;28;20086;-73
2023/03/26 00:16:30;;;;;;;14.70;3.50;;;25.20;99.90;;;;;;5084775;28;20032;-76
2023/03/26 00:18:57;;;;;;;8.23;3.90;;;25.20;99.90;;;;;;5088212;28;20020;-75
2023/03/26 00:21:26;;;;;;;12.25;3.60;;;25.30;99.90;;;;;;5086477;28;20036;-73
2023/03/26 00:23:55;;;;;;;9.80;2.97;;;25.40;99.90;;;;;;5085791;28;20047;-73
2023/03/26 00:26:22;;;;;;;6.30;2.88;;;25.40;99.90;;;;;;5083510;28;20016;-79
2023/03/26 00:28:49;;;;;;;6.28;2.25;;;25.50;99.90;;;;;;5085328;28;20491;-77
2023/03/26 00:31:17;;;;;;;6.25;3.15;;;25.50;99.90;;;;;;5087872;28;20017;-79
2023/03/26 00:33:43;;;;;;;9.00;3.05;;;25.50;99.90;;;;;;5082382;28;20024;-74
2023/03/26 00:36:13;;;;;;;5.57;2.60;;;25.60;99.90;;;;;;5085970;28;20015;-73
2023/03/26 00:38:41;;;;;;;3.75;2.30;;;25.60;99.90;;;;;;5085195;28;20024;-74
2023/03/26 00:41:16;;;;;;;5.03;3.17;;;25.60;99.90;;;;;;5085062;28;20017;-73
2023/03/26 00:43:45;;;;;;;4.28;2.60;;;25.70;99.90;;;;;;5082994;28;20465;-75
2023/03/26 00:46:12;;;;;;;7.95;2.88;;;25.80;99.90;;;;;;5082176;28;20051;-74
2023/03/26 00:48:41;;;;;;;8.20;3.45;;;25.80;99.90;;;;;;5085080;28;20469;-73
2023/03/26 00:51:10;;;;;;;4.68;3.03;;;25.90;99.90;;;;;;5084856;28;20483;-73
2023/03/26 00:53:37;;;;;;;6.05;3.38;;;26.10;99.90;;;;;;5081719;28;20031;-72
2023/03/26 00:56:07;;;;;;;5.20;3.30;;;26.20;99.90;;;;;;5080753;28;20091;-73
2023/03/26 00:58:34;;;;;;;4.93;3.10;;;26.30;99.90;;;;;;5082704;28;20027;-72
2023/03/26 01:01:03;;;;;;;7.38;5.68;;;26.30;99.90;;;;;;5084106;28;20059;-76
2023/03/26 01:03:35;;;;;;;6.90;3.78;;;26.40;99.90;;;;;;5086933;28;20099;-74
2023/03/26 01:06:06;;;;;;;3.90;3.40;;;26.50;99.90;;;;;;5085786;28;20029;-75
2023/03/26 01:08:38;;;;;;;5.82;4.05;;;26.50;99.90;;;;;;5082697;28;20016;-78
2023/03/26 01:11:13;;;;;;;5.60;3.45;;;26.50;99.90;;;;;;5086234;28;20078;-74
2023/03/26 01:13:43;;;;;;;6.38;3.30;;;26.50;99.90;;;;;;5087103;28;20016;-75
2023/03/26 01:16:20;;;;;;;7.18;3.42;;;26.50;99.90;;;;;;5071481;28;20075;-71
2023/03/26 01:18:47;;;;;;;14.70;6.32;;;26.50;99.90;;;;;;5060098;28;20028;-73
2023/03/26 01:21:21;;;;;;;5.32;3.70;;;26.60;99.90;;;;;;5075994;28;20024;-73
2023/03/26 01:23:58;;;;;;;5.38;3.92;;;26.60;99.90;;;;;;5075588;28;20107;-74
2023/03/26 01:26:27;;;;;;;9.73;4.20;;;26.70;99.90;;;;;;5075810;28;20033;-73
2023/03/26 01:28:58;;;;;;;7.65;5.15;;;26.70;99.90;;;;;;5075818;28;20024;-73
2023/03/26 01:31:29;;;;;;;6.53;5.03;;;26.80;99.90;;;;;;5075785;28;20020;-75
2023/03/26 01:34:11;;;;;;;149.95;80.15;;;26.80;99.90;;;;;;5075234;28;20098;-73
2023/03/26 01:36:48;;;;;;;16.15;8.98;;;26.90;99.90;;;;;;5055587;28;20442;-73
2023/03/26 01:39:24;;;;;;;11.45;5.70;;;26.90;99.90;;;;;;5058565;28;20089;-74
2023/03/26 01:41:57;;;;;;;6.63;4.68;;;27.00;99.90;;;;;;5075498;28;20044;-72
2023/03/26 01:44:30;;;;;;;9.02;5.95;;;26.90;99.90;;;;;;5073661;28;20123;-74
2023/03/26 01:46:59;;;;;;;7.70;5.35;;;26.90;99.90;;;;;;5065028;28;20028;-74
2023/03/26 01:49:28;;;;;;;8.02;5.20;;;26.90;99.90;;;;;;5056892;28;20559;-74
2023/03/26 01:51:56;;;;;;;8.20;5.03;;;26.90;99.90;;;;;;5060039;28;20028;-74
2023/03/26 01:54:27;;;;;;;13.30;8.48;;;26.90;99.90;;;;;;5075228;28;20029;-72
2023/03/26 01:56:57;;;;;;;53.67;29.90;;;27.00;99.90;;;;;;5066801;28;20473;-74
2023/03/26 01:59:32;;;;;;;15.18;10.23;;;27.10;99.90;;;;;;5075032;28;20032;-74
2023/03/26 02:02:09;;;;;;;9.30;6.43;;;27.10;99.90;;;;;;5075173;28;20025;-74
2023/03/26 02:04:41;;;;;;;9.02;6.25;;;27.20;99.90;;;;;;5075168;28;20020;-73
2023/03/26 02:07:08;;;;;;;13.02;7.82;;;27.30;99.90;;;;;;5074871;28;20115;-74
2023/03/26 02:09:44;;;;;;;9.25;5.90;;;27.20;99.90;;;;;;5075025;28;20025;-74
2023/03/26 02:12:13;;;;;;;13.45;7.72;;;27.30;99.90;;;;;;5074073;28;20558;-73
2023/03/26 02:14:41;;;;;;;12.73;7.30;;;27.30;99.90;;;;;;5068100;28;20017;-76
2023/03/26 02:17:09;;;;;;;15.20;8.70;;;27.40;99.90;;;;;;5054870;28;20056;-76
2023/03/26 02:19:41;;;;;;;15.32;9.68;;;27.40;99.90;;;;;;5054547;28;20032;-75
2023/03/26 02:22:14;;;;;;;16.90;12.07;;;27.50;99.90;;;;;;5056270;28;20021;-75
2023/03/26 02:24:42;;;;;;;13.32;9.45;;;27.60;99.90;;;;;;5057555;28;20578;-79
2023/03/26 02:27:11;;;;;;;22.77;11.27;;;27.60;99.90;;;;;;5066955;28;20066;-72
2023/03/26 02:29:38;;;;;;;23.10;14.07;;;27.70;99.90;;;;;;5068957;28;20020;-72
2023/03/26 02:32:08;;;;;;;26.25;15.90;;;27.60;99.90;;;;;;5069497;28;20478;-75
2023/03/26 02:34:35;;;;;;;15.00;8.90;;;27.60;99.90;;;;;;5063279;28;20031;-76
2023/03/26 02:37:02;;;;;;;10.15;8.00;;;27.70;99.90;;;;;;5060170;28;20025;-73
2023/03/26 02:39:28;;;;;;;15.82;8.85;;;27.70;99.90;;;;;;5061638;28;20531;-74
2023/03/26 02:41:55;;;;;;;15.55;9.52;;;27.80;99.90;;;;;;5070171;28;20136;-73
2023/03/26 02:44:21;;;;;;;15.07;9.45;;;27.90;99.90;;;;;;5074385;28;20104;-71
2023/03/26 02:46:48;;;;;;;12.07;9.05;;;28.00;99.90;;;;;;5070762;28;20386;-72
2023/03/26 02:49:14;;;;;;;12.18;8.85;;;28.00;99.90;;;;;;5062994;28;20020;-72
2023/03/26 02:51:41;;;;;;;12.05;9.13;;;28.00;99.90;;;;;;5069443;28;20031;-73
2023/03/26 02:54:07;;;;;;;11.40;9.55;;;28.00;99.90;;;;;;5079725;28;20028;-72
2023/03/26 02:56:34;;;;;;;12.00;8.73;;;28.10;99.90;;;;;;5084114;28;20015;-73
2023/03/26 02:59:04;;;;;;;12.90;9.93;;;28.10;99.90;;;;;;5065366;28;20424;-73
2023/03/26 03:01:33;;;;;;;12.18;9.65;;;28.20;99.90;;;;;;5084455;28;20016;-72
2023/03/26 03:04:03;;;;;;;11.75;9.10;;;28.20;99.90;;;;;;5083449;28;20028;-74
2023/03/26 03:06:31;;;;;;;12.13;9.18;;;28.30;99.90;;;;;;5082308;28;20013;-74
2023/03/26 03:08:57;;;;;;;13.35;9.52;;;28.30;99.90;;;;;;5083479;28;20094;-75
2023/03/26 03:11:24;;;;;;;14.98;9.57;;;28.30;99.90;;;;;;5083581;28;20043;-74
2023/03/26 03:13:51;;;;;;;16.00;8.63;;;28.30;99.90;;;;;;5082347;28;20025;-74
2023/03/26 03:16:18;;;;;;;13.30;9.43;;;28.40;99.90;;;;;;5073406;28;20385;-73
2023/03/26 03:18:46;;;;;;;15.90;9.43;;;28.50;99.90;;;;;;5073870;28;20109;-74
2023/03/26 03:21:12;;;;;;;13.82;9.98;;;28.50;99.90;;;;;;5073615;28;20111;-74
2023/03/26 03:23:39;;;;;;;12.93;10.10;;;28.50;99.90;;;;;;5073377;28;20070;-74
2023/03/26 03:26:14;;;;;;;13.60;9.68;;;28.60;99.90;;;;;;5073583;28;20032;-73
2023/03/26 03:28:41;;;;;;;16.13;10.70;;;28.70;99.90;;;;;;5073411;28;20060;-73
2023/03/26 03:31:07;;;;;;;13.77;10.15;;;28.70;99.90;;;;;;5073482;28;20016;-71
2023/03/26 03:33:34;;;;;;;13.20;9.63;;;28.80;99.90;;;;;;5073585;28;20100;-70
2023/03/26 03:36:09;;;;;;;13.98;10.45;;;28.70;99.90;;;;;;5072273;28;20020;-70
2023/03/26 03:38:37;;;;;;;14.35;10.90;;;28.90;99.90;;;;;;5068846;28;20051;-72
2023/03/26 03:41:04;;;;;;;17.42;10.55;;;28.90;99.90;;;;;;5064521;28;20037;-72
2023/03/26 03:43:31;;;;;;;15.00;10.50;;;28.90;99.90;;;;;;5060865;28;20028;-71
2023/03/26 03:45:59;;;;;;;15.68;10.77;;;28.90;99.90;;;;;;5056469;28;20469;-72
2023/03/26 03:48:28;;;;;;;14.80;10.68;;;28.90;99.90;;;;;;5053160;28;20049;-72
2023/03/26 03:50:55;;;;;;;12.70;10.80;;;29.00;99.90;;;;;;5053172;28;20025;-72
2023/03/26 03:53:24;;;;;;;15.90;11.10;;;29.10;99.90;;;;;;5053798;28;20020;-74
2023/03/26 03:55:54;;;;;;;14.60;9.85;;;29.20;99.90;;;;;;5065217;28;20067;-74
2023/03/26 03:58:27;;;;;;;16.15;11.18;;;29.40;99.90;;;;;;5073277;28;20016;-73
2023/03/26 04:00:59;;;;;;;16.67;12.43;;;29.50;99.90;;;;;;5074240;28;20028;-70
2023/03/26 04:03:27;;;;;;;17.23;13.02;;;29.50;99.90;;;;;;5081189;28;20052;-72
2023/03/26 04:05:54;;;;;;;18.48;12.73;;;29.70;99.90;;;;;;5082779;28;20047;-72
2023/03/26 04:08:22;;;;;;;16.70;12.73;;;29.80;99.90;;;;;;5082867;28;20017;-72
2023/03/26 04:10:50;;;;;;;18.30;14.43;;;29.80;99.90;;;;;;5080722;28;20051;-73
2023/03/26 04:13:17;;;;;;;22.05;14.30;;;29.90;99.90;;;;;;5082111;28;20489;-71
2023/03/26 04:15:44;;;;;;;19.08;13.73;;;30.00;99.90;;;;;;5081037;28;20025;-72
2023/03/26 04:18:11;;;;;;;19.48;15.90;;;30.00;99.90;;;;;;5083057;28;20119;-70
2023/03/26 04:20:40;;;;;;;21.30;16.17;;;30.10;99.90;;;;;;5072797;28;20031;-72
2023/03/26 04:23:12;;;;;;;22.52;16.05;;;30.00;99.90;;;;;;5079825;28;20020;-71
2023/03/26 04:25:42;;;;;;;22.65;15.90;;;30.10;99.90;;;;;;5077593;28;20465;-72
2023/03/26 04:28:13;;;;;;;21.10;15.63;;;30.10;99.90;;;;;;5081243;28;20535;-71
2023/03/26 04:30:41;;;;;;;20.63;15.95;;;30.00;99.90;;;;;;5079176;28;20421;-73
2023/03/26 04:33:14;;;;;;;20.02;15.88;;;30.00;99.90;;;;;;5080281;28;20495;-71
2023/03/26 04:35:43;;;;;;;20.10;16.33;;;29.90;99.90;;;;;;5079862;28;20133;-72
2023/03/26 04:38:11;;;;;;;25.75;17.02;;;29.90;99.90;;;;;;5081546;28;20016;-69
2023/03/26 04:40:38;;;;;;;20.52;17.58;;;29.90;99.90;;;;;;5075669;28;20082;-70
2023/03/26 04:43:05;;;;;;;21.50;15.70;;;29.90;99.90;;;;;;5081061;28;20077;-68
2023/03/26 04:45:31;;;;;;;26.58;19.42;;;29.90;99.90;;;;;;5081124;28;20154;-69
2023/03/26 04:47:58;;;;;;;17.55;14.98;;;30.10;99.90;;;;;;5082345;28;20028;-72
2023/03/26 04:50:25;;;;;;;19.13;15.40;;;30.10;99.90;;;;;;5083792;28;20044;-73
2023/03/26 04:52:55;;;;;;;18.92;15.50;;;30.20;99.90;;;;;;5084900;28;20008;-72
2023/03/26 04:55:23;;;;;;;22.08;15.98;;;30.30;99.90;;;;;;5086012;28;20016;-73
2023/03/26 04:57:55;;;;;;;17.95;14.15;;;30.20;99.90;;;;;;5086684;28;20016;-73
2023/03/26 05:00:22;;;;;;;17.02;14.23;;;30.20;99.90;;;;;;5079807;28;20032;-73
2023/03/26 05:02:49;;;;;;;16.27;12.98;;;30.20;99.90;;;;;;5086519;28;20032;-70
2023/03/26 05:05:16;;;;;;;19.15;11.82;;;30.20;99.90;;;;;;5084480;28;20025;-71
2023/03/26 05:07:43;;;;;;;15.40;12.35;;;30.20;99.90;;;;;;5082599;28;20021;-71
2023/03/26 05:10:13;;;;;;;16.13;11.23;;;30.20;99.90;;;;;;5084664;28;20046;-70
2023/03/26 05:12:40;;;;;;;16.90;11.50;;;30.30;99.90;;;;;;5073298;28;20417;-75
2023/03/26 05:15:10;;;;;;;12.90;10.50;;;30.40;99.90;;;;;;5084687;28;20046;-73
2023/03/26 05:17:40;;;;;;;16.58;11.80;;;30.40;99.90;;;;;;5081931;28;20384;-71
2023/03/26 05:20:28;;;;;;;15.52;11.52;;;30.40;99.90;;;;;;5085022;28;20026;-72
2023/03/26 05:22:55;;;;;;;11.60;10.40;;;30.40;99.90;;;;;;5085735;28;20028;-71
2023/03/26 05:25:22;;;;;;;12.40;10.13;;;30.50;99.90;;;;;;5084825;28;20021;-70
2023/03/26 05:27:48;;;;;;;15.30;10.23;;;30.50;99.90;;;;;;5084619;28;20028;-70
2023/03/26 05:30:18;;;;;;;13.30;10.93;;;30.40;99.90;;;;;;5086486;28;20055;-70
2023/03/26 05:32:47;;;;;;;14.30;11.27;;;30.40;99.90;;;;;;5085260;28;20027;-70
2023/03/26 05:35:17;;;;;;;15.30;10.35;;;30.50;99.90;;;;;;5083933;28;20504;-71
2023/03/26 05:37:45;;;;;;;12.75;9.43;;;30.50;99.90;;;;;;5084186;28;20028;-72
2023/03/26 05:40:15;;;;;;;14.32;10.02;;;30.50;99.90;;;;;;5083678;28;20107;-71
2023/03/26 05:42:42;;;;;;;17.23;10.65;;;30.70;99.90;;;;;;5084530;28;20465;-71
2023/03/26 05:45:12;;;;;;;14.05;10.63;;;30.70;99.90;;;;;;5083830;28;20031;-71
2023/03/26 05:47:39;;;;;;;15.10;11.40;;;30.80;99.90;;;;;;5081606;28;20016;-71
2023/03/26 05:50:06;;;;;;;11.27;10.07;;;30.90;99.90;;;;;;5084489;28;20019;-66
2023/03/26 05:52:33;;;;;;;13.02;10.45;;;30.90;99.90;;;;;;5085807;28;20081;-65
2023/03/26 05:55:00;;;;;;;11.93;10.00;;;30.90;99.90;;;;;;5084130;28;20017;-65
2023/03/26 05:57:29;;;;;;;13.27;10.13;;;30.90;99.90;;;;;;5084307;28;20028;-64
2023/03/26 05:59:56;;;;;;;14.30;10.35;;;30.80;99.90;;;;;;5084364;28;20033;-67
2023/03/26 06:02:22;;;;;;;11.13;9.88;;;30.90;99.90;;;;;;5083878;28;20052;-67
2023/03/26 06:04:49;;;;;;;13.25;10.40;;;31.00;99.90;;;;;;5085444;28;20491;-67
2023/03/26 06:07:17;;;;;;;16.13;10.02;;;31.10;99.90;;;;;;5084025;28;20068;-65
2023/03/26 06:09:44;;;;;;;11.27;9.70;;;31.00;99.90;;;;;;5082677;28;20020;-68
2023/03/26 06:12:11;;;;;;;13.35;10.43;;;31.00;99.90;;;;;;5076430;28;20413;-68
2023/03/26 06:14:38;;;;;;;14.65;10.93;;;31.10;99.90;;;;;;5082692;28;20013;-67
2023/03/26 06:17:04;;;;;;;12.25;9.57;;;31.10;99.90;;;;;;5083389;28;20101;-68
2023/03/26 06:19:31;;;;;;;16.92;9.05;;;31.10;99.90;;;;;;5084163;28;20020;-70
2023/03/26 06:21:57;;;;;;;10.32;8.75;;;31.10;99.90;;;;;;5082499;28;20115;-67
2023/03/26 06:24:24;;;;;;;15.70;10.70;;;31.20;99.90;;;;;;5083060;28;20020;-66
2023/03/26 06:26:51;;;;;;;14.10;10.80;;;31.20;99.90;;;;;;5083872;28;20027;-67
2023/03/26 06:29:18;;;;;;;16.33;10.30;;;31.20;99.90;;;;;;5074199;28;20028;-66
2023/03/26 06:31:44;;;;;;;18.00;10.95;;;31.20;99.90;;;;;;5074179;28;20029;-67
2023/03/26 06:34:11;;;;;;;18.02;11.43;;;31.20;99.90;;;;;;5074093;28;20375;-67
2023/03/26 06:36:37;;;;;;;15.77;10.52;;;31.20;99.90;;;;;;5076357;28;20021;-66
2023/03/26 06:39:04;;;;;;;14.30;10.23;;;31.20;99.90;;;;;;5082867;28;20099;-65
2023/03/26 06:41:33;;;;;;;11.48;9.50;;;31.20;99.90;;;;;;5076816;28;20095;-64
2023/03/26 06:44:02;;;;;;;15.13;9.50;;;31.20;99.90;;;;;;5076897;28;20025;-64
2023/03/26 06:46:31;;;;;;;12.98;9.65;;;31.20;99.90;;;;;;5082575;28;20502;-68
2023/03/26 06:48:58;;;;;;;13.55;10.32;;;31.20;99.90;;;;;;5083028;28;20039;-68
2023/03/26 06:51:25;;;;;;;11.85;9.55;;;31.20;99.90;;;;;;5081582;28;20104;-66
2023/03/26 06:53:51;;;;;;;10.77;8.95;;;31.20;99.90;;;;;;5082897;28;20468;-67
2023/03/26 06:56:18;;;;;;;12.05;9.00;;;31.20;99.90;;;;;;5082988;28;20032;-66
2023/03/26 06:58:44;;;;;;;11.68;10.13;;;31.40;99.90;;;;;;5081539;28;20484;-67
2023/03/26 07:01:11;;;;;;;13.30;9.68;;;31.40;99.90;;;;;;5082889;28;20103;-67
2023/03/26 07:03:37;;;;;;;18.10;10.27;;;31.40;99.90;;;;;;5082780;28;20023;-67
2023/03/26 07:06:04;;;;;;;14.00;10.48;;;31.50;99.90;;;;;;5081273;28;20085;-67
2023/03/26 07:08:31;;;;;;;11.05;9.63;;;31.50;99.90;;;;;;5079522;28;20016;-68
2023/03/26 07:10:57;;;;;;;15.07;10.45;;;31.60;99.90;;;;;;5076909;28;20147;-66
2023/03/26 07:13:24;;;;;;;12.15;9.60;;;31.70;99.90;;;;;;5078016;28;20040;-67
2023/03/26 07:15:51;;;;;;;12.73;9.52;;;31.60;99.90;;;;;;5081591;28;20096;-68
2023/03/26 07:18:17;;;;;;;22.20;11.52;;;31.60;99.90;;;;;;5081843;28;20080;-67
2023/03/26 07:20:45;;;;;;;16.48;10.70;;;31.70;99.90;;;;;;5082965;28;20020;-66
2023/03/26 07:23:14;;;;;;;15.20;10.43;;;31.70;99.90;;;;;;5081543;28;20126;-67
2023/03/26 07:25:41;;;;;;;13.57;10.13;;;31.80;99.90;;;;;;5081205;28;20508;-67
2023/03/26 07:28:16;;;;;;;15.45;9.82;;;31.90;99.90;;;;;;5078243;28;20489;-67
2023/03/26 07:31:05;;;;;;;13.63;10.10;;;32.00;99.90;;;;;;5081037;28;20029;-67
2023/03/26 07:33:39;;;;;;;25.40;10.20;;;32.20;99.90;;;;;;5070300;28;20475;-67
2023/03/26 07:36:28;;;;;;;20.15;9.93;;;32.20;99.90;;;;;;5082846;28;20016;-67
2023/03/26 07:38:55;;;;;;;14.10;10.05;;;32.20;99.90;;;;;;5077909;28;20020;-68
2023/03/26 07:41:27;;;;;;;14.57;9.48;;;32.20;99.90;;;;;;5081274;28;20056;-67
2023/03/26 07:43:56;;;;;;;14.35;10.15;;;32.20;99.90;;;;;;5079587;28;20021;-67
2023/03/26 07:46:30;;;;;;;12.85;10.05;;;32.30;99.90;;;;;;5080926;28;20101;-65
2023/03/26 07:49:00;;;;;;;12.88;9.93;;;32.40;99.90;;;;;;5076315;28;20052;-66
2023/03/26 07:51:27;;;;;;;12.48;10.38;;;32.40;99.90;;;;;;5073056;28;20031;-66
2023/03/26 07:53:55;;;;;;;11.27;9.30;;;32.40;99.90;;;;;;5072989;28;20059;-68
2023/03/26 07:56:48;;;;;;;15.07;10.05;;;32.20;99.90;;;;;;5082575;28;20060;-67
2023/03/26 07:59:15;;;;;;;18.70;10.95;;;32.20;99.90;;;;;;5070399;28;20101;-67
2023/03/26 08:01:45;;;;;;;14.00;10.48;;;32.20;99.90;;;;;;5082501;28;20119;-66
2023/03/26 08:04:17;;;;;;;13.52;10.40;;;32.30;99.90;;;;;;5080355;28;20078;-67
2023/03/26 08:07:09;;;;;;;13.32;9.93;;;32.30;99.90;;;;;;5083229;28;20042;-66
2023/03/26 08:10:06;;;;;;;12.68;10.30;;;32.30;99.90;;;;;;5073739;28;20043;-65
2023/03/26 08:12:39;;;;;;;12.55;9.88;;;32.20;99.90;;;;;;5061412;28;20086;-64
2023/03/26 08:15:15;;;;;;;13.75;9.80;;;32.20;99.90;;;;;;5080024;28;20035;-67
2023/03/26 08:17:46;;;;;;;15.40;9.63;;;32.20;99.90;;;;;;5072670;28;20029;-67
2023/03/26 08:20:42;;;;;;;12.07;9.15;;;32.20;99.90;;;;;;5066275;28;20111;-67
2023/03/26 08:23:34;;;;;;;10.48;9.35;;;32.20;99.90;;;;;;5049831;28;20486;-66
2023/03/26 08:26:23;;;;;;;19.02;9.68;;;32.30;99.90;;;;;;5027940;28;20041;-68
2023/03/26 08:28:58;;;;;;;15.52;10.18;;;32.40;99.90;;;;;;5056509;28;20033;-67
2023/03/26 08:31:32;;;;;;;13.40;9.93;;;32.40;99.90;;;;;;5056581;28;20029;-67
2023/03/26 08:34:00;;;;;;;13.80;10.02;;;32.50;99.90;;;;;;5056391;28;20371;-68
2023/03/26 08:36:27;;;;;;;14.73;10.20;;;32.50;99.90;;;;;;5056249;28;20032;-67
2023/03/26 08:38:54;;;;;;;14.88;10.38;;;32.60;99.90;;;;;;5057324;28;20103;-66
2023/03/26 08:41:27;;;;;;;13.32;10.55;;;32.60;99.90;;;;;;5070504;28;20025;-67
2023/03/26 08:44:16;;;;;;;11.18;8.60;;;32.70;99.90;;;;;;5076473;28;20086;-67
2023/03/26 08:46:56;;;;;;;14.60;9.98;;;32.70;99.90;;;;;;5070518;28;20042;-66
2023/03/26 08:49:28;;;;;;;12.70;9.57;;;32.70;99.90;;;;;;5096953;28;20024;-67
2023/03/26 08:52:06;;;;;;;12.80;10.30;;;32.80;99.90;;;;;;5087492;28;20423;-66
2023/03/26 08:54:47;;;;;;;16.92;9.75;;;32.90;99.90;;;;;;5080639;28;20020;-67
2023/03/26 08:57:17;;;;;;;17.05;10.32;;;32.90;99.90;;;;;;5085535;28;20107;-66
2023/03/26 08:59:49;;;;;;;10.63;9.45;;;32.90;99.90;;;;;;5077015;28;20730;-71
2023/03/26 09:02:18;;;;;;;12.80;9.65;;;33.00;99.90;;;;;;5076715;28;20033;-71
2023/03/26 09:04:48;;;;;;;11.60;9.13;;;33.00;99.90;;;;;;5076577;28;20105;-70
2023/03/26 09:07:19;;;;;;;11.68;9.05;;;33.00;99.90;;;;;;5076803;28;20470;-70
2023/03/26 09:09:49;;;;;;;15.32;9.05;;;33.00;99.90;;;;;;5077098;28;20111;-70
2023/03/26 09:12:31;;;;;;;13.18;9.40;;;33.10;99.90;;;;;;5077481;28;20032;-71
2023/03/26 09:15:18;;;;;;;10.88;8.93;;;33.10;99.90;;;;;;5088008;28;20074;-71
2023/03/26 09:17:54;;;;;;;17.40;12.50;;;33.10;99.90;;;;;;5074544;28;20039;-71
2023/03/26 09:20:40;;;;;;;24.52;17.42;;;33.10;99.90;;;;;;5079708;28;20032;-72
2023/03/26 09:23:09;;;;;;;54.00;35.67;;;33.10;99.90;;;;;;5086506;28;20107;-67
2023/03/26 09:25:41;;;;;;;30.77;23.15;;;33.00;99.90;;;;;;5075829;28;20028;-66
2023/03/26 09:28:08;;;;;;;;;;;33.00;99.90;;;;;;5076481;28;20441;-67
2023/03/26 09:30:37;;;;;;;16.38;10.40;;;33.00;99.90;;;;;;5075840;28;20369;-70
2023/03/26 09:33:08;;;;;;;34.70;21.50;;;32.90;99.90;;;;;;5075806;28;20048;-66
2023/03/26 09:35:51;;;;;;;53.33;35.65;;;32.90;99.90;;;;;;5075701;28;20434;-66
2023/03/26 09:38:23;;;;;;;80.43;48.50;;;32.90;99.90;;;;;;5076115;28;20021;-66
2023/03/26 09:40:54;;;;;;;33.72;22.40;;;32.90;99.90;;;;;;5076209;28;20029;-66
2023/03/26 09:43:26;;;;;;;14.15;11.50;;;32.90;99.90;;;;;;5075318;28;20492;-67
2023/03/26 09:45:54;;;;;;;13.27;10.40;;;32.80;99.90;;;;;;5084026;28;20063;-67
2023/03/26 09:48:33;;;;;;;16.65;10.63;;;32.80;99.90;;;;;;5095815;28;20043;-66
2023/03/26 09:51:11;;;;;;;22.98;13.77;;;32.80;99.90;;;;;;5057311;28;20029;-67
2023/03/26 09:53:38;;;;;;;15.95;12.00;;;32.80;99.90;;;;;;5055480;28;20021;-68
2023/03/26 09:56:13;;;;;;;13.75;11.43;;;32.80;99.90;;;;;;5055400;28;20017;-68
2023/03/26 09:58:42;;;;;;;16.90;14.00;;;32.80;99.90;;;;;;5064515;28;20081;-67
2023/03/26 10:01:13;;;;;;;14.20;10.88;;;32.80;99.90;;;;;;5055090;28;20036;-67
2023/03/26 10:03:51;;;;;;;17.30;13.00;;;32.80;99.90;;;;;;5054997;28;20036;-67
2023/03/26 10:06:21;;;;;;;20.48;16.25;;;32.80;99.90;;;;;;5054927;28;20025;-67
2023/03/26 10:09:11;;;;;;;23.38;15.48;;;32.80;99.90;;;;;;5054992;28;20021;-67
2023/03/26 10:11:49;;;;;;;17.00;12.63;;;32.80;99.90;;;;;;5054831;28;20021;-67
2023/03/26 10:14:18;;;;;;;27.02;16.73;;;32.80;99.90;;;;;;5058305;28;20044;-67
2023/03/26 10:16:55;;;;;;;18.83;13.48;;;32.80;99.90;;;;;;5067002;28;20016;-68
2023/03/26 10:19:38;;;;;;;25.02;17.05;;;32.80;99.90;;;;;;5076263;28;20128;-66
2023/03/26 10:22:08;;;;;;;23.85;14.85;;;32.70;99.90;;;;;;5083286;28;20145;-67
2023/03/26 10:24:50;;;;;;;19.27;12.60;;;32.70;99.90;;;;;;5083257;28;20044;-67
2023/03/26 10:27:17;;;;;;;;;;;32.70;99.90;;;;;;5081273;28;20043;-67
2023/03/26 10:29:49;;;;;;;19.40;13.40;;;32.70;99.90;;;;;;5083988;28;20267;-66
2023/03/26 10:32:18;;;;;;;;;;;32.70;99.90;;;;;;5080940;28;20078;-67
2023/03/26 10:34:50;;;;;;;45.63;26.70;;;32.60;99.90;;;;;;5083726;28;19947;-68
2023/03/26 10:37:16;;;;;;;;;;;32.60;99.90;;;;;;5074948;28;20067;-71
2023/03/26 10:39:52;;;;;;;35.53;22.00;;;32.50;99.90;;;;;;5084808;28;20385;-71
2023/03/26 10:42:32;;;;;;;33.85;22.40;;;32.40;99.90;;;;;;5082410;28;20039;-71
2023/03/26 10:45:03;;;;;;;28.23;16.98;;;32.40;99.90;;;;;;5082925;28;20427;-72
2023/03/26 10:47:31;;;;;;;20.85;14.43;;;32.30;99.90;;;;;;5082843;28;20050;-73
2023/03/26 10:50:20;;;;;;;31.85;20.90;;;32.20;99.90;;;;;;5082882;28;20028;-71
2023/03/26 10:52:54;;;;;;;63.35;40.08;;;32.20;99.90;;;;;;5077572;28;20047;-69
2023/03/26 10:55:31;;;;;;;128.38;80.65;;;32.20;99.90;;;;;;5078473;28;20016;-71
2023/03/26 10:58:03;;;;;;;76.38;50.47;;;32.20;99.90;;;;;;5078408;28;20059;-73
2023/03/26 11:00:35;;;;;;;22.83;14.77;;;32.20;99.90;;;;;;5077195;28;20016;-74
2023/03/26 11:03:03;;;;;;;;;;;32.20;99.90;;;;;;5080051;28;20326;-71
2023/03/26 11:05:34;;;;;;;47.03;32.08;;;32.10;99.90;;;;;;5081120;28;20273;-71
2023/03/26 11:08:09;;;;;;;52.53;36.08;;;32.00;99.90;;;;;;5081622;28;20070;-73
2023/03/26 11:10:41;;;;;;;38.65;26.40;;;32.00;99.90;;;;;;5082471;28;20024;-69
2023/03/26 11:13:22;;;;;;;32.97;23.27;;;31.90;99.90;;;;;;5082999;28;20028;-71
2023/03/26 11:15:59;;;;;;;27.73;19.17;;;31.90;99.90;;;;;;5073531;28;20035;-72
2023/03/26 11:18:41;;;;;;;27.58;17.67;;;31.80;99.90;;;;;;5073711;28;20028;-72
2023/03/26 11:21:17;;;;;;;38.17;21.80;;;31.80;99.90;;;;;;5084232;28;20033;-71
2023/03/26 11:24:05;;;;;;;60.88;32.65;;;31.70;99.90;;;;;;5080201;28;20035;-72
2023/03/26 11:26:40;;;;;;;32.40;20.55;;;31.70;99.90;;;;;;5039591;28;20048;-73
2023/03/26 11:29:08;;;;;;;25.60;16.40;;;31.70;99.90;;;;;;5066935;28;20028;-73
2023/03/26 11:31:37;;;;;;;21.88;15.25;;;31.70;99.90;;;;;;5082046;28;20016;-72
2023/03/26 11:34:11;;;;;;;29.77;18.63;;;31.70;99.90;;;;;;5084181;28;20020;-71
2023/03/26 11:36:43;;;;;;;44.85;27.80;;;31.60;99.90;;;;;;5083791;28;20019;-72
2023/03/26 11:39:14;;;;;;;46.10;28.45;;;31.60;99.90;;;;;;5080607;28;20056;-71
2023/03/26 11:41:41;;;;;;;42.20;26.40;;;31.50;99.90;;;;;;5081823;28;20033;-69
2023/03/26 11:44:16;;;;;;;37.70;25.63;;;31.50;99.90;;;;;;5083936;28;20417;-70
2023/03/26 11:46:45;;;;;;;54.00;35.95;;;31.50;99.90;;;;;;5084155;28;20016;-70
2023/03/26 11:49:15;;;;;;;87.10;53.72;;;31.50;99.90;;;;;;5082485;28;20064;-69
2023/03/26 11:51:46;;;;;;;58.08;37.50;;;31.50;99.90;;;;;;5081926;28;20084;-70
2023/03/26 11:54:14;;;;;;;70.57;40.53;;;31.60;99.90;;;;;;5082944;28;20063;-70
2023/03/26 11:56:43;;;;;;;102.35;62.83;;;31.50;99.90;;;;;;5083953;28;20480;-70
2023/03/26 11:59:18;;;;;;;91.93;64.78;;;31.50;99.90;;;;;;5079896;28;20172;-72
2023/03/26 12:01:50;;;;;;;98.95;69.20;;;31.50;99.90;;;;;;5081868;28;20012;-70
2023/03/26 12:04:24;;;;;;;84.20;51.90;;;31.40;99.90;;;;;;5064709;28;20020;-71
2023/03/26 12:06:56;;;;;;;71.53;48.63;;;31.40;99.90;;;;;;5077323;28;20381;-70
2023/03/26 12:09:23;;;;;;;;;;;31.40;99.90;;;;;;5084385;28;20020;-73
2023/03/26 12:11:54;;;;;;;97.25;69.65;;;31.40;99.90;;;;;;5081632;28;19909;-74
2023/03/26 12:14:25;;;;;;;108.97;73.07;;;31.30;99.90;;;;;;5080843;28;20024;-72
2023/03/26 12:16:57;;;;;;;102.68;64.72;;;31.30;99.90;;;;;;5079763;28;20095;-71
2023/03/26 12:19:25;;;;;;;89.40;55.47;;;31.30;99.90;;;;;;5073393;28;20017;-71
2023/03/26 12:21:52;;;;;;;71.25;48.50;;;31.30;99.90;;;;;;5070405;28;20370;-71
2023/03/26 12:24:27;;;;;;;70.72;44.65;;;31.30;99.90;;;;;;5073185;28;20376;-70
2023/03/26 12:27:00;;;;;;;49.35;30.92;;;31.20;99.90;;;;;;5072726;28;20020;-70
2023/03/26 12:29:33;;;;;;;45.22;27.90;;;31.20;99.90;;;;;;5073364;28;20020;-72
2023/03/26 12:32:04;;;;;;;40.90;25.55;;;31.20;99.90;;;;;;5073032;28;20100;-71
2023/03/26 12:34:34;;;;;;;38.80;25.35;;;31.30;99.90;;;;;;5072701;28;20465;-71
2023/03/26 12:37:02;;;;;;;47.95;27.90;;;31.20;99.90;;;;;;5072621;28;20028;-74
2023/03/26 12:39:35;;;;;;;51.55;28.73;;;31.20;99.90;;;;;;5072675;28;20082;-72
2023/03/26 12:42:02;;;;;;;47.05;30.02;;;31.20;99.90;;;;;;5072612;28;20034;-71
2023/03/26 12:44:30;;;;;;;81.15;44.00;;;31.10;99.90;;;;;;5072879;28;20021;-72
2023/03/26 12:47:02;;;;;;;124.25;61.08;;;31.10;99.90;;;;;;5072460;28;20025;-71
2023/03/26 12:49:28;;;;;;;110.85;61.05;;;31.10;99.90;;;;;;5072849;28;20052;-73
2023/03/26 12:52:10;;;;;;;80.57;47.03;;;31.00;99.90;;;;;;5072790;28;20028;-72